createdAt,value
2022-08-08T00:01:06.677Z,3.25
2022-08-08T00:03:47.307Z,3.22
2022-08-08T00:06:35.311Z,3.00
2022-08-08T00:09:08.001Z,3.10
2022-08-08T00:12:10.585Z,3.17
2022-08-08T00:14:57.409Z,2.80
2022-08-08T00:18:02.032Z,2.88
2022-08-08T00:20:46.284Z,2.60
2022-08-08T00:23:19.472Z,3.08
2022-08-08T00:25:53.067Z,2.95
2022-08-08T00:28:35.864Z,2.85
2022-08-08T00:32:21.263Z,3.05
2022-08-08T00:34:21.181Z,3.30
2022-08-08T00:36:51.567Z,3.33
2022-08-08T00:41:06.091Z,3.03
2022-08-08T00:42:37.335Z,3.20
2022-08-08T00:45:37.338Z,3.33
2022-08-08T00:48:29.185Z,3.17
2022-08-08T00:51:09.785Z,3.10
2022-08-08T00:53:43.503Z,3.75
2022-08-08T00:56:23.910Z,3.28
2022-08-08T00:59:14.430Z,3.80
2022-08-08T01:02:03.546Z,3.15
2022-08-08T01:05:11.516Z,3.80
2022-08-08T01:08:06.615Z,3.35
2022-08-08T01:10:36.264Z,3.65
2022-08-08T01:13:08.989Z,3.55
2022-08-08T01:15:58.629Z,3.80
2022-08-08T01:18:53.154Z,3.78
2022-08-08T01:27:00.474Z,3.70
2022-08-08T01:29:27.975Z,3.90
2022-08-08T01:32:22.135Z,3.60
2022-08-08T01:35:30.522Z,3.65
2022-08-08T01:37:59.940Z,3.80
2022-08-08T01:40:32.422Z,3.42
2022-08-08T01:43:12.557Z,4.00
2022-08-08T01:45:57.479Z,4.07
2022-08-08T01:48:43.797Z,4.18
2022-08-08T01:51:32.136Z,3.72
2022-08-08T01:55:45.986Z,3.97
2022-08-08T01:57:25.814Z,4.37
2022-08-08T02:00:12.905Z,4.10
2022-08-08T02:02:58.216Z,4.05
2022-08-08T02:05:58.892Z,4.20
2022-08-08T02:08:33.943Z,3.95
2022-08-08T02:13:53.232Z,4.03
2022-08-08T02:16:29.544Z,4.93
2022-08-08T02:19:56.973Z,4.72
2022-08-08T02:22:34.052Z,4.10
2022-08-08T02:25:17.953Z,4.78
2022-08-08T02:28:05.003Z,4.68
2022-08-08T02:33:06.983Z,5.22
2022-08-08T02:36:04.387Z,4.85
2022-08-08T02:38:34.759Z,4.82
2022-08-08T02:41:01.342Z,5.10
2022-08-08T02:44:38.333Z,5.43
2022-08-08T02:46:35.587Z,4.97
2022-08-08T02:49:27.429Z,5.07
2022-08-08T02:52:34.675Z,5.72
2022-08-08T02:55:10.398Z,5.50
2022-08-08T02:58:01.535Z,5.75
2022-08-08T03:00:31.857Z,5.43
2022-08-08T03:05:00.470Z,5.53
2022-08-08T03:06:34.889Z,5.28
2022-08-08T03:09:01.814Z,5.95
2022-08-08T03:12:01.649Z,5.45
2022-08-08T03:15:56.774Z,5.72
2022-08-08T03:17:59.681Z,5.82
2022-08-08T03:20:51.121Z,6.00
2022-08-08T03:23:18.109Z,6.05
2022-08-08T03:25:45.754Z,6.20
2022-08-08T03:28:18.991Z,6.07
2022-08-08T03:30:49.151Z,6.30
2022-08-08T03:33:58.211Z,6.03
2022-08-08T03:36:20.021Z,6.40
2022-08-08T03:39:07.630Z,5.95
2022-08-08T03:42:26.598Z,6.15
2022-08-08T03:44:31.142Z,6.30
2022-08-08T03:46:57.394Z,6.40
2022-08-08T03:49:57.546Z,6.10
2022-08-08T03:52:13.860Z,6.82
2022-08-08T03:55:02.078Z,6.47
2022-08-08T03:58:32.223Z,6.75
2022-08-08T04:00:18.327Z,6.43
2022-08-08T04:02:54.329Z,7.20
2022-08-08T04:05:28.479Z,7.20
2022-08-08T04:07:56.015Z,8.02
2022-08-08T04:10:22.276Z,6.82
2022-08-08T04:12:48.591Z,6.72
2022-08-08T04:15:16.479Z,7.03
2022-08-08T04:17:58.310Z,6.47
2022-08-08T04:20:28.181Z,7.45
2022-08-08T04:22:54.765Z,7.35
2022-08-08T04:25:29.790Z,7.07
2022-08-08T04:28:03.646Z,7.07
2022-08-08T04:30:45.056Z,6.53
2022-08-08T04:33:11.472Z,7.30
2022-08-08T04:35:40.459Z,6.70
2022-08-08T04:38:21.395Z,7.65
2022-08-08T04:40:53.581Z,7.57
2022-08-08T04:43:22.153Z,7.28
2022-08-08T04:45:49.460Z,6.82
2022-08-08T04:48:15.887Z,6.93
2022-08-08T04:50:44.666Z,6.63
2022-08-08T04:53:14.294Z,6.60
2022-08-08T04:55:58.925Z,6.78
2022-08-08T04:58:25.930Z,7.43
2022-08-08T05:00:52.280Z,6.22
2022-08-08T05:04:11.360Z,6.53
2022-08-08T05:06:12.908Z,6.70
2022-08-08T05:08:41.375Z,6.50
2022-08-08T05:11:07.811Z,6.47
2022-08-08T05:13:34.265Z,7.10
2022-08-08T05:16:51.028Z,6.65
2022-08-08T05:18:47.387Z,6.55
2022-08-08T05:21:15.796Z,6.25
2022-08-08T05:23:46.122Z,6.20
2022-08-08T05:26:14.086Z,6.50
2022-08-08T05:28:56.585Z,6.03
2022-08-08T05:32:03.276Z,6.10
2022-08-08T05:34:20.857Z,6.22
2022-08-08T05:36:53.690Z,6.18
2022-08-08T05:39:23.376Z,6.18
2022-08-08T05:41:55.663Z,5.57
2022-08-08T05:44:33.554Z,5.68
2022-08-08T05:47:02.977Z,5.80
2022-08-08T05:49:31.279Z,6.43
2022-08-08T05:51:57.647Z,5.28
2022-08-08T05:54:43.287Z,5.68
2022-08-08T05:57:15.192Z,5.65
2022-08-08T06:00:00.248Z,5.47
2022-08-08T06:02:51.134Z,5.57
2022-08-08T06:05:34.711Z,5.38
2022-08-08T06:08:09.978Z,5.57
2022-08-08T06:10:49.548Z,5.80
2022-08-08T06:13:17.383Z,5.88
2022-08-08T06:15:50.879Z,5.72
2022-08-08T06:18:22.037Z,5.57
2022-08-08T06:20:50.978Z,5.10
2022-08-08T06:23:29.172Z,6.00
2022-08-08T06:26:38.675Z,6.07
2022-08-08T06:29:18.681Z,5.28
2022-08-08T06:32:10.377Z,5.85
2022-08-08T06:34:39.206Z,6.07
2022-08-08T06:37:24.223Z,6.05
2022-08-08T06:39:56.738Z,6.38
2022-08-08T06:42:23.988Z,6.13
2022-08-08T06:44:52.298Z,6.43
2022-08-08T06:47:22.386Z,6.00
2022-08-08T06:49:58.079Z,6.22
2022-08-08T06:52:27.656Z,6.18
2022-08-08T06:54:55.396Z,6.55
2022-08-08T06:57:24.878Z,6.10
2022-08-08T07:00:02.590Z,5.95
2022-08-08T07:02:45.370Z,5.90
2022-08-08T07:05:20.930Z,6.28
2022-08-08T07:07:51.083Z,6.47
2022-08-08T07:10:20.569Z,5.75
2022-08-08T07:12:54.190Z,5.93
2022-08-08T07:16:04.782Z,5.95
2022-08-08T07:18:41.834Z,5.65
2022-08-08T07:21:18.434Z,5.50
2022-08-08T07:24:06.165Z,5.03
2022-08-08T07:26:37.848Z,5.35
2022-08-08T07:29:05.325Z,4.63
2022-08-08T07:31:35.318Z,5.35
2022-08-08T07:34:02.979Z,4.90
2022-08-08T07:36:30.349Z,5.75
2022-08-08T07:38:58.582Z,4.80
2022-08-08T07:41:28.779Z,4.90
2022-08-08T07:44:37.343Z,5.47
2022-08-08T07:47:01.511Z,5.78
2022-08-08T07:49:27.819Z,6.38
2022-08-08T07:51:54.641Z,5.15
2022-08-08T07:54:29.189Z,6.25
2022-08-08T07:57:17.000Z,5.43
2022-08-08T08:00:05.229Z,6.20
2022-08-08T08:02:47.772Z,6.50
2022-08-08T08:05:26.395Z,5.55
2022-08-08T08:08:04.456Z,5.88
2022-08-08T08:10:33.153Z,6.22
2022-08-08T08:13:25.825Z,5.38
2022-08-08T08:16:08.651Z,5.38
2022-08-08T08:18:52.112Z,6.10
2022-08-08T08:21:44.409Z,6.28
2022-08-08T08:24:10.487Z,5.95
2022-08-08T08:26:37.044Z,6.40
2022-08-08T08:29:05.242Z,6.07
2022-08-08T08:31:41.432Z,5.97
2022-08-08T08:34:08.153Z,5.57
2022-08-08T08:36:35.879Z,5.90
2022-08-08T08:39:03.555Z,5.22
2022-08-08T08:41:34.782Z,5.85
2022-08-08T08:44:13.380Z,5.45
2022-08-08T08:46:40.605Z,5.60
2022-08-08T08:49:11.901Z,5.10
2022-08-08T08:51:51.554Z,5.45
2022-08-08T08:54:25.389Z,5.10
2022-08-08T08:56:52.130Z,5.45
2022-08-08T08:59:23.632Z,5.15
2022-08-08T09:02:10.243Z,4.35
2022-08-08T09:04:45.581Z,3.90
2022-08-08T09:07:18.836Z,4.40
2022-08-08T09:09:48.044Z,4.32
2022-08-08T09:12:16.698Z,4.10
2022-08-08T09:14:47.112Z,3.85
2022-08-08T09:17:18.870Z,2.90
2022-08-08T09:21:56.925Z,3.80
2022-08-08T09:22:34.963Z,3.53
2022-08-08T09:25:01.721Z,3.50
2022-08-08T09:27:55.897Z,3.35
2022-08-08T09:30:17.862Z,3.47
2022-08-08T09:33:54.703Z,3.20
2022-08-08T09:35:38.068Z,3.35
2022-08-08T09:38:05.617Z,2.83
2022-08-08T09:40:45.480Z,3.40
2022-08-08T09:43:41.276Z,2.50
2022-08-08T09:46:16.723Z,3.20
2022-08-08T09:48:52.201Z,2.65
2022-08-08T09:51:23.163Z,2.83
2022-08-08T09:54:05.094Z,2.92
2022-08-08T09:56:40.897Z,2.65
2022-08-08T09:59:40.422Z,2.63
2022-08-08T10:02:12.991Z,2.35
2022-08-08T10:04:47.418Z,3.05
2022-08-08T10:07:17.251Z,2.53
2022-08-08T10:10:00.672Z,2.85
2022-08-08T10:12:38.588Z,3.23
2022-08-08T10:15:19.913Z,2.58
2022-08-08T10:18:05.635Z,2.50
2022-08-08T10:21:00.541Z,2.42
2022-08-08T10:23:50.948Z,2.72
2022-08-08T10:26:59.493Z,3.20
2022-08-08T10:29:20.901Z,3.30
2022-08-08T10:32:08.073Z,2.40
2022-08-08T10:34:38.541Z,2.75
2022-08-08T10:37:06.778Z,2.58
2022-08-08T10:39:53.819Z,2.75
2022-08-08T10:42:21.958Z,2.50
2022-08-08T10:44:59.501Z,3.08
2022-08-08T10:47:25.788Z,2.95
2022-08-08T10:50:04.356Z,2.70
2022-08-08T10:52:34.019Z,2.40
2022-08-08T10:55:00.394Z,2.65
2022-08-08T10:57:49.902Z,2.95
2022-08-08T11:00:25.709Z,2.80
2022-08-08T11:02:52.778Z,2.70
2022-08-08T11:05:19.328Z,2.38
2022-08-08T11:08:37.733Z,2.90
2022-08-08T11:10:39.532Z,3.00
2022-08-08T11:13:29.113Z,3.00
2022-08-08T11:16:07.447Z,3.45
2022-08-08T11:18:35.652Z,3.00
2022-08-08T11:21:10.442Z,2.70
2022-08-08T11:23:46.278Z,2.70
2022-08-08T11:26:28.834Z,3.28
2022-08-08T11:28:56.801Z,2.67
2022-08-08T11:31:25.363Z,2.75
2022-08-08T11:34:01.448Z,3.10
2022-08-08T11:36:29.175Z,2.72
2022-08-08T11:38:56.254Z,3.00
2022-08-08T11:41:27.719Z,2.90
2022-08-08T11:43:54.736Z,3.22
2022-08-08T11:46:25.168Z,2.80
2022-08-08T11:48:51.807Z,3.10
2022-08-08T11:51:38.411Z,3.90
2022-08-08T11:54:26.770Z,6.70
2022-08-08T11:56:56.513Z,3.40
2022-08-08T12:00:00.291Z,3.30
2022-08-08T12:02:31.949Z,3.38
2022-08-08T12:05:03.356Z,3.03
2022-08-08T12:07:29.622Z,3.20
2022-08-08T12:10:02.725Z,2.92
2022-08-08T12:12:40.745Z,2.80
2022-08-08T12:15:13.059Z,2.90
2022-08-08T12:17:51.036Z,2.78
2022-08-08T12:20:17.629Z,3.30
2022-08-08T12:22:51.222Z,3.20
2022-08-08T12:25:20.678Z,3.30
2022-08-08T12:28:10.622Z,2.75
2022-08-08T12:30:42.816Z,2.85
2022-08-08T12:33:24.365Z,3.30
2022-08-08T12:36:10.959Z,2.65
2022-08-08T12:38:55.459Z,2.70
2022-08-08T12:41:33.585Z,2.80
2022-08-08T12:44:04.957Z,3.00
2022-08-08T12:46:31.571Z,2.67
2022-08-08T12:49:25.112Z,3.50
2022-08-08T12:51:53.625Z,2.58
2022-08-08T12:54:26.267Z,2.58
2022-08-08T12:56:52.858Z,2.60
2022-08-08T12:59:36.229Z,3.13
2022-08-08T13:02:20.519Z,3.10
2022-08-08T13:04:49.588Z,3.00
2022-08-08T13:07:17.645Z,2.95
2022-08-08T13:10:10.623Z,2.67
2022-08-08T13:12:44.495Z,2.72
2022-08-08T13:15:16.908Z,2.78
2022-08-08T13:18:08.224Z,2.80
2022-08-08T13:20:32.447Z,3.20
2022-08-08T13:23:30.182Z,3.13
2022-08-08T13:25:51.045Z,3.10
2022-08-08T13:28:29.299Z,2.78
2022-08-08T13:31:00.026Z,2.60
2022-08-08T13:33:28.305Z,2.95
2022-08-08T13:36:10.433Z,2.83
2022-08-08T13:38:37.089Z,2.78
2022-08-08T13:41:03.481Z,2.50
2022-08-08T13:43:29.884Z,2.97
2022-08-08T13:46:06.667Z,2.45
2022-08-08T13:49:11.219Z,2.80
2022-08-08T13:51:41.713Z,2.92
2022-08-08T13:54:19.985Z,3.10
2022-08-08T13:57:00.062Z,2.90
2022-08-08T13:59:34.319Z,2.75
2022-08-08T14:02:20.732Z,3.05
2022-08-08T14:04:53.960Z,5.40
2022-08-08T14:07:22.411Z,3.38
2022-08-08T14:10:04.426Z,3.17
2022-08-08T14:12:37.598Z,2.95
2022-08-08T14:15:07.018Z,2.63
2022-08-08T14:17:57.215Z,2.95
2022-08-08T14:20:57.284Z,2.92
2022-08-08T14:23:21.087Z,3.15
2022-08-08T14:26:10.744Z,2.83
2022-08-08T14:28:39.592Z,3.95
2022-08-08T14:31:11.289Z,2.78
2022-08-08T14:33:50.662Z,2.63
2022-08-08T14:36:31.505Z,2.95
2022-08-08T14:39:01.066Z,2.75
2022-08-08T14:41:53.770Z,2.88
2022-08-08T14:44:19.551Z,3.20
2022-08-08T14:46:56.733Z,2.78
2022-08-08T14:49:37.576Z,3.08
2022-08-08T14:52:21.104Z,3.15
2022-08-08T14:54:48.365Z,3.08
2022-08-08T14:57:16.447Z,3.15
2022-08-08T14:59:50.018Z,3.67
2022-08-08T15:02:30.718Z,2.95
2022-08-08T15:05:08.331Z,2.78
2022-08-08T15:07:40.499Z,3.45
2022-08-08T15:10:09.241Z,2.97
2022-08-08T15:12:36.136Z,2.70
2022-08-08T15:15:09.056Z,2.80
2022-08-08T15:17:36.599Z,3.55
2022-08-08T15:20:04.565Z,2.95
2022-08-08T15:22:31.578Z,3.10
2022-08-08T15:24:57.899Z,3.22
2022-08-08T15:28:03.384Z,2.60
2022-08-08T15:30:12.706Z,3.17
2022-08-08T15:32:41.004Z,2.90
2022-08-08T15:35:09.939Z,2.70
2022-08-08T15:37:37.202Z,3.08
2022-08-08T15:40:03.899Z,2.90
2022-08-08T15:42:32.478Z,2.50
2022-08-08T15:45:06.243Z,3.33
2022-08-08T15:47:32.524Z,2.70
2022-08-08T15:49:58.829Z,3.03
2022-08-08T15:52:25.779Z,2.80
2022-08-08T15:54:52.447Z,3.20
2022-08-08T15:57:19.462Z,3.00
2022-08-08T16:00:05.284Z,2.80
2022-08-08T16:02:33.737Z,3.25
2022-08-08T16:05:00.893Z,3.00
2022-08-08T16:07:39.479Z,2.80
2022-08-08T16:13:15.664Z,2.80
2022-08-08T16:13:43.256Z,2.90
2022-08-08T16:15:57.124Z,2.78
2022-08-08T16:18:25.801Z,2.95
2022-08-08T16:20:52.182Z,2.90
2022-08-08T16:23:18.392Z,2.40
2022-08-08T16:25:54.638Z,2.90
2022-08-08T16:28:34.978Z,2.50
2022-08-08T16:31:06.477Z,2.90
2022-08-08T16:33:38.755Z,2.75
2022-08-08T16:36:08.806Z,2.72
2022-08-08T16:38:36.472Z,3.50
2022-08-08T16:41:11.201Z,3.00
2022-08-08T16:43:50.608Z,2.97
2022-08-08T16:46:43.938Z,2.95
2022-08-08T16:49:04.944Z,3.38
2022-08-08T16:55:01.181Z,3.30
2022-08-08T16:55:04.081Z,3.15
2022-08-08T16:57:23.325Z,3.33
2022-08-08T16:59:52.703Z,2.95
2022-08-08T17:02:44.236Z,3.17
2022-08-08T17:05:13.065Z,3.10
2022-08-08T17:07:40.887Z,3.10
2022-08-08T17:10:09.048Z,2.97
2022-08-08T17:12:36.773Z,3.28
2022-08-08T17:15:17.920Z,3.60
2022-08-08T17:18:03.742Z,3.25
2022-08-08T17:20:38.223Z,3.42
2022-08-08T17:23:17.856Z,3.22
2022-08-08T17:25:53.999Z,3.03
2022-08-08T17:28:35.324Z,3.25
2022-08-08T17:31:45.760Z,3.25
2022-08-08T17:34:48.454Z,3.20
2022-08-08T17:36:37.788Z,3.10
2022-08-08T17:39:45.767Z,3.30
2022-08-08T17:42:08.503Z,3.28
2022-08-08T17:44:35.979Z,3.55
2022-08-08T17:47:06.280Z,3.35
2022-08-08T17:49:42.548Z,3.30
2022-08-08T17:52:09.782Z,3.72
2022-08-08T17:54:36.046Z,3.75
2022-08-08T17:57:03.642Z,2.92
2022-08-08T17:59:36.080Z,2.95
2022-08-08T18:02:03.237Z,3.15
2022-08-08T18:04:31.614Z,2.95
2022-08-08T18:06:59.934Z,3.45
2022-08-08T18:09:27.409Z,3.38
2022-08-08T18:11:58.858Z,3.13
2022-08-08T18:14:25.691Z,3.17
2022-08-08T18:16:52.879Z,3.20
2022-08-08T18:19:21.522Z,3.15
2022-08-08T18:21:59.862Z,3.03
2022-08-08T18:24:30.199Z,3.17
2022-08-08T18:26:57.470Z,3.15
2022-08-08T18:29:29.727Z,2.85
2022-08-08T18:32:00.192Z,2.60
2022-08-08T18:34:30.184Z,3.10
2022-08-08T18:37:00.281Z,3.35
2022-08-08T18:39:28.049Z,2.85
2022-08-08T18:42:03.147Z,3.08
2022-08-08T18:46:57.959Z,2.83
2022-08-08T18:49:32.276Z,2.30
2022-08-08T18:52:07.548Z,2.60
2022-08-08T18:54:34.594Z,2.58
2022-08-08T18:57:03.804Z,2.58
2022-08-08T18:59:38.324Z,2.60
2022-08-08T19:02:24.932Z,2.72
2022-08-08T19:04:53.485Z,2.50
2022-08-08T19:07:23.025Z,2.53
2022-08-08T19:10:14.153Z,2.70
2022-08-08T19:12:35.842Z,2.95
2022-08-08T19:15:06.347Z,2.55
2022-08-08T19:17:48.034Z,2.60
2022-08-08T19:20:19.118Z,2.70
2022-08-08T19:22:45.934Z,2.53
2022-08-08T19:25:29.666Z,2.72
2022-08-08T19:28:00.054Z,2.42
2022-08-08T19:30:27.066Z,2.65
2022-08-08T19:33:00.462Z,2.50
2022-08-08T19:35:44.217Z,2.85
2022-08-08T19:38:17.320Z,2.67
2022-08-08T19:40:48.979Z,2.60
2022-08-08T19:43:22.073Z,2.80
2022-08-08T19:45:58.371Z,2.50
2022-08-08T19:48:29.043Z,2.15
2022-08-08T19:50:57.525Z,2.20
2022-08-08T19:53:51.033Z,2.53
2022-08-08T19:56:12.887Z,2.50
2022-08-08T19:58:39.330Z,2.50
2022-08-08T20:01:05.797Z,2.80
2022-08-08T20:04:01.593Z,2.40
2022-08-08T20:06:21.683Z,2.67
2022-08-08T20:08:48.902Z,2.30
2022-08-08T20:11:15.268Z,2.40
2022-08-08T20:14:12.788Z,2.42
2022-08-08T20:16:29.791Z,2.40
2022-08-08T20:18:56.647Z,2.38
2022-08-08T20:21:25.848Z,2.40
2022-08-08T20:23:54.186Z,2.20
2022-08-08T20:26:30.311Z,2.33
2022-08-08T20:29:00.454Z,2.30
2022-08-08T20:31:47.157Z,2.40
2022-08-08T20:34:30.138Z,2.47
2022-08-08T20:36:58.651Z,2.42
2022-08-08T20:39:25.155Z,2.40
2022-08-08T20:42:00.290Z,2.63
2022-08-08T20:44:26.570Z,2.80
2022-08-08T20:46:52.889Z,2.70
2022-08-08T20:49:19.618Z,2.55
2022-08-08T20:51:48.409Z,2.50
2022-08-08T20:54:25.870Z,2.58
2022-08-08T20:57:05.930Z,2.92
2022-08-08T20:59:41.774Z,2.85
2022-08-08T21:02:08.990Z,2.63
2022-08-08T21:04:40.412Z,2.83
2022-08-08T21:07:16.089Z,2.47
2022-08-08T21:09:48.702Z,2.80
2022-08-08T21:12:32.448Z,3.10
2022-08-08T21:15:06.727Z,2.80
2022-08-08T21:17:33.860Z,3.10
2022-08-08T21:20:00.127Z,2.70
2022-08-08T21:22:29.973Z,2.88
2022-08-08T21:24:56.394Z,2.75
2022-08-08T21:28:06.091Z,2.53
2022-08-08T21:30:19.284Z,3.45
2022-08-08T21:36:19.288Z,2.60
2022-08-08T21:38:05.655Z,2.70
2022-08-08T21:40:38.113Z,2.50
2022-08-08T21:43:04.338Z,2.50
2022-08-08T21:48:02.468Z,2.40
2022-08-08T21:48:35.333Z,2.60
2022-08-08T21:51:10.047Z,2.65
2022-08-08T21:54:34.783Z,2.53
2022-08-08T21:56:32.789Z,3.33
2022-08-08T21:59:05.732Z,2.50
2022-08-08T22:01:40.508Z,2.55
2022-08-08T22:04:11.101Z,2.85
2022-08-08T22:06:40.427Z,2.38
2022-08-08T22:09:08.260Z,2.85
2022-08-08T22:11:51.206Z,2.85
2022-08-08T22:14:22.385Z,2.60
2022-08-08T22:16:51.102Z,2.45
2022-08-08T22:19:19.935Z,2.30
2022-08-08T22:21:50.560Z,2.97
2022-08-08T22:24:17.272Z,2.78
2022-08-08T22:27:02.432Z,3.13
2022-08-08T22:29:57.803Z,2.78
2022-08-08T22:32:18.194Z,3.88
2022-08-08T22:34:45.220Z,2.75
2022-08-08T22:37:49.231Z,2.95
2022-08-08T22:40:04.451Z,2.92
2022-08-08T22:42:31.818Z,2.70
2022-08-08T22:45:01.054Z,2.28
2022-08-08T22:47:38.031Z,2.20
2022-08-08T22:50:09.849Z,2.58
2022-08-08T22:53:22.609Z,2.20
2022-08-08T22:55:58.933Z,3.20
2022-08-08T22:58:27.062Z,2.58
2022-08-08T23:00:54.947Z,2.55
2022-08-08T23:03:21.367Z,2.30
2022-08-08T23:05:50.007Z,2.63
2022-08-08T23:08:17.976Z,2.67
2022-08-08T23:10:46.415Z,2.90
2022-08-08T23:13:19.388Z,2.65
2022-08-08T23:16:38.580Z,2.83
2022-08-08T23:18:34.660Z,2.67
2022-08-08T23:21:04.430Z,2.80
2022-08-08T23:23:48.293Z,2.47
2022-08-08T23:26:15.197Z,2.40
2022-08-08T23:28:41.505Z,2.88
2022-08-08T23:31:07.798Z,2.55
2022-08-08T23:34:15.489Z,3.00
2022-08-08T23:36:26.226Z,2.63
2022-08-08T23:38:52.821Z,2.45
2022-08-08T23:41:25.127Z,2.42
2022-08-08T23:43:54.085Z,2.78
2022-08-08T23:49:04.617Z,2.67
2022-08-08T23:49:15.395Z,2.85
2022-08-08T23:52:04.577Z,3.13
2022-08-08T23:54:41.270Z,3.10
2022-08-08T23:57:15.186Z,3.00
